Tenerife > ESTACION METEOROLÓGICA Las Carboneras - Santa Cruz de Tenerife

DATOS ACTUALES Online

Ultima actulizacion 11 minutos

16.6 ºC

Temperatura

38

Humedad (%)

946.27

Presión (mb)

0

Precipitación (mm)

76 S

Viento (Km/h)

DATOS DIARIOS

Temperatura últimas 24 horas (ºC)

Humedad últimas 24 horas (%)

Presión atmosférica últimas 24 horas (mb)

Precipitaciones últimas 23 horas (mm)

Viento últimas 24 horas (Km/h)

Hora Temperatura (°C) ºC Precipitación (mm) mm Presión (mb) mb Humedad (%) % Viento (Km/h) km/h
19 - 12:00 12.7 2.6 945 90 76.5 S
19 - 13:00 13.5 2.6 943 83 78.5 SO
19 - 14:00 13.2 2.6 943 86 82.3 SO
19 - 15:00 13.1 2.6 943 89 68.6 S
19 - 16:00 12.9 2.6 943 89 70.1 SO
19 - 17:00 12.6 2.6 943 93 63.1 S
19 - 18:00 12.8 2.6 945 89 54.4 S
19 - 19:00 12.8 2.6 944 85 67.2 S
19 - 20:00 12.9 2.6 944 83 80.1 S
19 - 21:00 13.9 2.6 945 59 80.4 S
19 - 22:00 14.7 2.6 945 47 84.3 SO
19 - 23:00 15.4 2.6 946 39 67.8 SO
20 - 00:00 15.9 0 946 43 70 S
20 - 01:00 15.7 0 945 45 78.3 S
20 - 02:00 15.7 0 944 45 82.2 SO
20 - 03:00 15.6 0 944 46 75.5 S
20 - 04:00 15.3 0 944 48 70.2 S
20 - 05:00 15 0 944 50 67.2 S
20 - 06:00 15 0 944 50 73.7 S
20 - 07:00 14.9 0 945 51 76.5 S
20 - 08:00 15.3 0 945 46 69.5 S
20 - 09:00 15.6 0 945 42 67 S
20 - 10:00 15.7 0 946 44 80.6 S
20 - 11:00 16.6 0 946 38 76 S
20 - 12:00
Apalmet utiliza cookies propias y de terceros para mejorar la usabilidad y la experiencia web. Política de cookies.